METAR Data
IDs: Format: Raw Decoded Include TAF

Data at: 1350 UTC 07 Jul 2020

KCNY 071253Z AUTO 00000KT 10SM CLR 21/M06 A2995 RMK AO2 SLP072 T02061056
KCNY 071153Z AUTO 03004KT 10SM CLR 19/M07 A2995 RMK AO2 SLP070 T01891067 10278 20183 53008
KCNY 071053Z AUTO 00000KT 10SM CLR 20/M07 A2993 RMK AO2 SLP063 T02001067
KCNY 070953Z AUTO 00000KT 10SM CLR 19/M07 A2993 RMK AO2 SLP063 T01891072
KCNY 070853Z AUTO 23006KT 10SM CLR 24/M06 A2992 RMK AO2 SLP055 T02441061 51004
KCNY 070753Z AUTO 23005KT 10SM CLR 24/M06 A2992 RMK AO2 SLP055 T02441061
KCNY 070653Z AUTO 00000KT 10SM CLR 24/M07 A2991 RMK AO2 SLP054 T02441067 403890194
KCNY 070553Z AUTO 22006KT 10SM CLR 26/M06 A2990 RMK AO2 SLP051 T02611056 10383 20261 51006
KCNY 070453Z AUTO 21010KT 10SM CLR 27/M05 A2990 RMK AO2 SLP051 T02721050
KCNY 070353Z AUTO 22007KT 10SM CLR 27/M05 A2990 RMK AO2 SLP050 T02721050
KCNY 070253Z AUTO 23009KT 10SM CLR 33/M05 A2989 RMK AO2 SLP043 T03281050 55004
KCNY 070153Z AUTO 23015KT 10SM CLR 36/M03 A2989 RMK AO2 SLP044 T03611033
KCNY 070053Z AUTO 23013G21KT 10SM CLR 37/M03 A2989 RMK AO2 PK WND 24027/2357 SLP045 T03721033
KCNY 062353Z AUTO 21010G24KT 10SM CLR 37/M03 A2990 RMK AO2 PK WND 22027/2331 WSHFT 2319 SLP053 T03721033 10389 20339 56017
KCNY 062339Z AUTO 23012G27KT 10SM CLR 38/M03 A2990 RMK AO2 PK WND 22027/2331 WSHFT 2319 T03781033
KCNY 062253Z AUTO 21009G25KT 150V220 10SM CLR 38/M03 A2991 RMK AO2 SLP057 T03831033
KCNY 062153Z AUTO 25011G21KT 10SM CLR 38/M03 A2994 RMK AO2 SLP062 T03781028
KCNY 062053Z AUTO VRB05G24KT 10SM CLR 37/M04 A2996 RMK AO2 SLP069 T03721039 58018
KCNY 061953Z AUTO VRB03KT 10SM CLR 37/M03 A2998 RMK AO2 SLP077 T03721028
KCNY 061853Z AUTO 10SM CLR 36/01 A3000 RMK AO2 SLP088 T03560006
KCNY 061753Z AUTO VRB03KT 10SM CLR 34/02 A3002 RMK AO2 SLP093 T03440017 10344 20194 58003
KCNY 061653Z AUTO 13006KT 10SM CLR 32/02 A3003 RMK AO2 SLP097 T03220022
KCNY 061553Z AUTO 13008KT 10SM CLR 31/03 A3003 RMK AO2 SLP092 T03110028
KCNY 061453Z AUTO 15005KT 10SM CLR 29/02 A3003 RMK AO2 SLP092 T02890022 51015
KCNY 061353Z AUTO 10003KT 10SM CLR 25/02 A3002 RMK AO2 SLP092 T02500022
KCNY 061253Z AUTO 14006KT 10SM CLR 22/M01 A3000 RMK AO2 SLP086 T02221006
KCNY 061153Z AUTO 17004KT 10SM CLR 19/M04 A2998 RMK AO2 SLP080 T01941039 10267 20194 53010
KCNY 061053Z AUTO 00000KT 10SM CLR 19/M05 A2996 RMK AO2 SLP076 T01941050
KCNY 060953Z AUTO 00000KT 10SM CLR 22/M04 A2995 RMK AO2 SLP068 T02221044
KCNY 060853Z AUTO 10003KT 10SM CLR 24/M05 A2994 RMK AO2 SLP065 T02391050 53002
KCNY 060753Z AUTO 25005KT 10SM CLR 23/M06 A2994 RMK AO2 SLP065 T02281056
KCNY 060653Z AUTO 05003KT 10SM CLR 22/M06 A2994 RMK AO2 SLP069 T02221061 403780206
KCNY 060553Z AUTO 29008KT 10SM CLR 23/M06 A2994 RMK AO2 SLP068 T02331056 10378 20228 53010
KCNY 060453Z AUTO 25005KT 10SM CLR 25/M05 A2992 RMK AO2 SLP062 T02501050
KCNY 060353Z AUTO 25003KT 10SM CLR 31/M05 A2992 RMK AO2 SLP056 T03061050
KCNY 060253Z AUTO 00000KT 10SM CLR 33/M06 A2991 RMK AO2 SLP051 T03281056 56004
KCNY 060153Z AUTO 28008KT 10SM CLR 36/M05 A2991 RMK AO2 SLP052 T03561050